Time;durP1;ratioP1;P1;durP2;ratioP2;P2;SDS_P1;SDS_P2;PMS_P1;PMS_P2;Temp;Humidity;BMP_temperature;BMP_pressure;BME280_temperature;BME280_humidity;BME280_pressure;Samples;Min_cycle;Max_cycle;Signal;HPM_P1;HPM_P2
2023/09/04 00:01:08;;;;;;;1.10;1.10;;;26.00;53.80;;;;;;5149647;27;45345;-72
2023/09/04 00:03:35;;;;;;;0.85;0.85;;;26.00;53.80;;;;;;5149499;27;45310;-72
2023/09/04 00:06:02;;;;;;;1.05;0.95;;;26.00;53.80;;;;;;5149429;27;45406;-72
2023/09/04 00:08:29;;;;;;;1.10;1.00;;;26.00;53.80;;;;;;5149090;27;46769;-72
2023/09/04 00:10:55;;;;;;;1.00;1.00;;;25.90;53.80;;;;;;5149137;27;45339;-72
2023/09/04 00:13:22;;;;;;;1.02;0.90;;;25.90;53.80;;;;;;5149488;27;45307;-72
2023/09/04 00:15:53;;;;;;;1.30;1.20;;;25.90;53.90;;;;;;5149548;27;45427;-72
2023/09/04 00:18:21;;;;;;;0.90;0.90;;;25.90;53.90;;;;;;5148978;27;45639;-72
2023/09/04 00:20:48;;;;;;;0.70;0.70;;;25.90;53.90;;;;;;5148614;27;45279;-72
2023/09/04 00:23:15;;;;;;;0.80;0.80;;;25.90;53.90;;;;;;5149169;27;45276;-72
2023/09/04 00:25:41;;;;;;;0.90;0.90;;;25.90;53.90;;;;;;5149242;27;45476;-72
2023/09/04 00:28:08;;;;;;;1.02;0.98;;;25.80;53.80;;;;;;5148103;27;46658;-72
2023/09/04 00:30:35;;;;;;;0.88;0.88;;;25.80;53.90;;;;;;5148486;27;45416;-72
2023/09/04 00:33:02;;;;;;;0.98;0.85;;;25.80;53.90;;;;;;5149249;27;45264;-71
2023/09/04 00:35:30;;;;;;;0.95;0.95;;;25.80;53.90;;;;;;5149675;27;45310;-72
2023/09/04 00:37:57;;;;;;;1.00;1.00;;;25.80;53.90;;;;;;5148660;27;47571;-72
2023/09/04 00:40:24;;;;;;;1.00;1.00;;;25.80;53.90;;;;;;5148970;27;45390;-72
2023/09/04 00:42:51;;;;;;;3.42;1.10;;;25.70;53.90;;;;;;5149156;27;45358;-72
2023/09/04 00:45:18;;;;;;;1.02;1.00;;;25.70;53.90;;;;;;5149115;27;45254;-72
2023/09/04 00:47:45;;;;;;;1.20;1.10;;;25.70;53.90;;;;;;5148478;27;45381;-72
2023/09/04 00:50:15;;;;;;;1.00;1.00;;;25.70;53.90;;;;;;5148613;27;45374;-72
2023/09/04 00:52:43;;;;;;;1.10;1.05;;;25.70;54.60;;;;;;5148965;27;45372;-72
2023/09/04 00:55:10;;;;;;;1.30;1.20;;;25.60;54.00;;;;;;5148761;27;45290;-72
2023/09/04 00:57:37;;;;;;;1.20;1.10;;;25.60;54.00;;;;;;5148257;27;46443;-72
2023/09/04 01:00:09;;;;;;;1.10;1.00;;;25.60;54.00;;;;;;5148627;27;45481;-73
2023/09/04 01:02:36;;;;;;;1.15;1.05;;;25.60;54.00;;;;;;5148893;27;45331;-73
2023/09/04 01:05:03;;;;;;;0.93;0.93;;;25.60;54.00;;;;;;5148680;27;45426;-72
2023/09/04 01:07:30;;;;;;;1.85;1.42;;;25.60;54.00;;;;;;5148685;27;46861;-72
2023/09/04 01:09:58;;;;;;;1.35;1.10;;;25.50;54.00;;;;;;5148880;27;45244;-72
2023/09/04 01:12:27;;;;;;;1.30;1.20;;;25.50;54.00;;;;;;5148894;27;45251;-72
2023/09/04 01:14:55;;;;;;;1.10;0.93;;;25.50;54.00;;;;;;5148023;27;45365;-72
2023/09/04 01:17:22;;;;;;;1.13;1.02;;;25.50;54.00;;;;;;5147661;27;45821;-72
2023/09/04 01:19:49;;;;;;;1.10;1.10;;;25.50;54.00;;;;;;5148344;27;45310;-72
2023/09/04 01:22:17;;;;;;;1.20;1.08;;;25.50;54.00;;;;;;5148324;27;45247;-72
2023/09/04 01:24:46;;;;;;;1.25;1.17;;;25.50;54.00;;;;;;5148818;27;45315;-72
2023/09/04 01:27:15;;;;;;;3.05;1.15;;;25.40;54.00;;;;;;5148026;27;45302;-73
2023/09/04 01:29:46;;;;;;;1.67;1.30;;;25.40;54.00;;;;;;5148292;27;45410;-73
2023/09/04 01:32:17;;;;;;;1.30;1.20;;;25.40;54.00;;;;;;5148288;27;45126;-73
2023/09/04 01:34:45;;;;;;;1.20;1.10;;;25.40;54.00;;;;;;5148578;27;45276;-73
2023/09/04 01:37:12;;;;;;;1.17;1.13;;;25.40;54.10;;;;;;5147801;27;46390;-73
2023/09/04 01:39:40;;;;;;;1.13;1.02;;;25.40;54.10;;;;;;5148139;27;45256;-73
2023/09/04 01:42:07;;;;;;;1.27;1.10;;;25.30;54.00;;;;;;5148497;27;45405;-73
2023/09/04 01:44:34;;;;;;;1.38;1.27;;;25.30;54.00;;;;;;5148284;27;45326;-73
2023/09/04 01:47:01;;;;;;;1.30;1.17;;;25.30;54.00;;;;;;5147624;27;46403;-73
2023/09/04 01:49:28;;;;;;;1.52;1.15;;;25.30;54.10;;;;;;5147819;27;45192;-73
2023/09/04 01:51:58;;;;;;;1.33;1.23;;;25.30;54.70;;;;;;5148000;27;45556;-73
2023/09/04 01:54:24;;;;;;;1.13;1.10;;;25.30;54.10;;;;;;5148094;27;45504;-72
2023/09/04 01:56:53;;;;;;;1.10;1.10;;;25.30;54.10;;;;;;5147599;27;46658;-73
2023/09/04 01:59:19;;;;;;;1.17;1.10;;;25.30;54.10;;;;;;5147827;27;45268;-73
2023/09/04 02:01:46;;;;;;;1.20;1.20;;;25.20;54.00;;;;;;5148139;27;45301;-72
2023/09/04 02:04:13;;;;;;;1.60;1.50;;;25.20;54.00;;;;;;5148070;27;45303;-71
2023/09/04 02:06:40;;;;;;;1.40;1.30;;;25.20;54.10;;;;;;5147136;27;46380;-73
2023/09/04 02:09:07;;;;;;;1.35;1.25;;;25.20;54.10;;;;;;5151364;27;45499;-72
2023/09/04 02:11:34;;;;;;;1.15;1.05;;;25.20;54.10;;;;;;5151387;27;45380;-73
2023/09/04 02:14:02;;;;;;;1.48;1.38;;;25.20;54.10;;;;;;5151408;27;45248;-73
2023/09/04 02:16:29;;;;;;;1.33;1.23;;;25.10;54.70;;;;;;5150933;27;45475;-72
2023/09/04 02:18:56;;;;;;;2.08;1.25;;;25.10;54.00;;;;;;5151120;27;45357;-72
2023/09/04 02:21:23;;;;;;;1.65;1.33;;;25.10;54.00;;;;;;5151103;27;45130;-73
2023/09/04 02:23:50;;;;;;;1.35;1.25;;;25.10;54.10;;;;;;5151462;27;45566;-73
2023/09/04 02:26:17;;;;;;;1.50;1.40;;;25.10;54.10;;;;;;5150878;27;45367;-73
2023/09/04 02:28:43;;;;;;;1.30;1.20;;;25.10;54.10;;;;;;5150733;27;45407;-73
2023/09/04 02:31:12;;;;;;;1.10;1.10;;;25.00;54.00;;;;;;5150991;27;45313;-73
2023/09/04 02:33:38;;;;;;;1.50;1.38;;;25.00;54.10;;;;;;5151345;27;45522;-73
2023/09/04 02:36:05;;;;;;;1.25;1.20;;;25.00;54.10;;;;;;5151242;27;45433;-73
2023/09/04 02:38:32;;;;;;;1.40;1.30;;;25.00;54.10;;;;;;5150723;27;45370;-73
2023/09/04 02:40:59;;;;;;;1.30;1.20;;;25.00;54.10;;;;;;5150906;27;45366;-73
2023/09/04 02:43:26;;;;;;;1.30;1.30;;;25.00;54.10;;;;;;5150875;27;45428;-73
2023/09/04 02:45:53;;;;;;;1.40;1.27;;;25.00;54.10;;;;;;5150845;27;45374;-73
2023/09/04 02:48:21;;;;;;;1.77;1.15;;;25.00;54.10;;;;;;5150244;27;45364;-72
2023/09/04 02:50:48;;;;;;;1.35;1.25;;;25.00;54.10;;;;;;5149972;27;45433;-73
2023/09/04 02:53:15;;;;;;;1.35;1.27;;;24.90;54.10;;;;;;5151170;27;45390;-72
2023/09/04 02:55:47;;;;;;;1.50;1.40;;;24.90;54.10;;;;;;5150687;27;45359;-72
2023/09/04 02:58:14;;;;;;;1.17;1.10;;;24.90;54.10;;;;;;5150399;27;45575;-73
2023/09/04 03:00:43;;;;;;;1.45;1.35;;;24.90;54.70;;;;;;5150993;27;45340;-73
2023/09/04 03:03:10;;;;;;;1.20;1.10;;;24.90;54.10;;;;;;5150719;27;45384;-73
2023/09/04 03:05:38;;;;;;;1.30;1.20;;;24.80;54.00;;;;;;5150483;27;45406;-73
2023/09/04 03:08:05;;;;;;;1.13;1.10;;;24.80;54.10;;;;;;5151043;27;45311;-73
2023/09/04 03:10:32;;;;;;;1.35;1.17;;;24.80;54.00;;;;;;5150162;27;45370;-73
2023/09/04 03:12:59;;;;;;;1.50;1.40;;;24.80;54.10;;;;;;5150569;27;45461;-73
2023/09/04 03:15:25;;;;;;;1.50;1.40;;;24.80;54.10;;;;;;5150722;27;45284;-73
2023/09/04 03:17:52;;;;;;;1.00;1.00;;;24.80;54.10;;;;;;5149865;27;45345;-73
2023/09/04 03:20:20;;;;;;;1.63;1.50;;;24.70;54.10;;;;;;5150435;27;45602;-73
2023/09/04 03:22:48;;;;;;;1.42;1.33;;;24.70;54.10;;;;;;5150679;27;45385;-73
2023/09/04 03:25:15;;;;;;;1.60;1.35;;;24.70;54.10;;;;;;5150018;27;46310;-71
2023/09/04 03:27:42;;;;;;;2.75;1.23;;;24.70;54.10;;;;;;5150438;27;45313;-71
2023/09/04 03:30:11;;;;;;;3.25;1.33;;;24.70;54.10;;;;;;5150408;27;45764;-72
2023/09/04 03:32:38;;;;;;;1.33;1.23;;;24.70;54.10;;;;;;5150522;27;45297;-73
2023/09/04 03:35:06;;;;;;;1.23;1.13;;;24.70;54.10;;;;;;5150015;27;46653;-73
2023/09/04 03:37:36;;;;;;;1.30;1.20;;;24.70;54.20;;;;;;5148817;27;45168;-72
2023/09/04 03:43:00;;;;;;;2.08;1.30;;;24.70;54.10;;;;;;5103770;27;45348;-73
2023/09/04 03:45:32;;;;;;;1.30;1.20;;;24.60;54.10;;;;;;5103817;27;45311;-73
2023/09/04 03:47:59;;;;;;;2.17;1.20;;;24.60;54.10;;;;;;5103978;27;45324;-71
2023/09/04 03:50:26;;;;;;;1.42;1.33;;;24.60;54.10;;;;;;5104022;27;45313;-73
2023/09/04 03:52:53;;;;;;;2.47;1.10;;;24.60;54.10;;;;;;5103707;27;46408;-71
2023/09/04 03:55:20;;;;;;;1.33;1.23;;;24.60;54.10;;;;;;5103713;27;45391;-73
2023/09/04 03:57:51;;;;;;;1.73;1.40;;;24.50;54.10;;;;;;5103637;27;45442;-73
2023/09/04 04:00:19;;;;;;;1.50;1.40;;;24.50;54.10;;;;;;5104177;27;45247;-72
2023/09/04 04:02:47;;;;;;;1.40;1.30;;;24.50;54.10;;;;;;5103627;27;46326;-72
2023/09/04 04:05:14;;;;;;;1.42;1.33;;;24.50;54.10;;;;;;5103606;27;45283;-73
2023/09/04 04:07:42;;;;;;;2.95;1.38;;;24.50;54.20;;;;;;5104995;27;45237;-73
2023/09/04 04:10:09;;;;;;;1.40;1.30;;;24.50;54.10;;;;;;5104257;27;45592;-73
2023/09/04 04:12:36;;;;;;;1.45;1.35;;;24.50;54.20;;;;;;5103447;27;45301;-73
2023/09/04 04:15:05;;;;;;;1.27;1.17;;;24.50;54.10;;;;;;5103375;27;45305;-73
2023/09/04 04:17:33;;;;;;;1.40;1.30;;;24.50;54.10;;;;;;5103541;27;45242;-73
2023/09/04 04:20:00;;;;;;;1.70;1.30;;;24.40;54.10;;;;;;5103421;27;45229;-72
2023/09/04 04:22:27;;;;;;;1.48;1.38;;;24.40;54.10;;;;;;5103389;27;45364;-73
2023/09/04 04:24:53;;;;;;;1.25;1.15;;;24.40;54.80;;;;;;5103261;27;45290;-72
2023/09/04 04:27:20;;;;;;;1.90;1.45;;;24.40;54.20;;;;;;5103273;27;45252;-72
2023/09/04 04:29:49;;;;;;;1.50;1.40;;;24.40;54.20;;;;;;5103434;27;45323;-73
2023/09/04 04:32:21;;;;;;;1.42;1.10;;;24.40;54.20;;;;;;5103197;27;45977;-73
2023/09/04 04:34:49;;;;;;;2.47;1.50;;;24.40;54.30;;;;;;5103131;27;45204;-72
2023/09/04 04:37:16;;;;;;;1.42;1.33;;;24.40;54.20;;;;;;5102342;27;45382;-72
2023/09/04 04:39:43;;;;;;;1.30;1.10;;;24.40;54.30;;;;;;5102661;27;45434;-72
2023/09/04 04:42:09;;;;;;;1.58;1.48;;;24.30;54.20;;;;;;5102504;27;46866;-72
2023/09/04 04:44:36;;;;;;;2.42;1.30;;;24.30;54.20;;;;;;5102888;27;45334;-72
2023/09/04 04:47:03;;;;;;;1.48;1.38;;;24.30;54.20;;;;;;5102822;27;45321;-72
2023/09/04 04:49:30;;;;;;;1.30;1.20;;;24.30;54.30;;;;;;5103230;27;45216;-72
2023/09/04 04:51:59;;;;;;;1.48;1.38;;;24.30;54.90;;;;;;5102818;27;46715;-72
2023/09/04 04:54:26;;;;;;;1.25;1.15;;;24.30;54.30;;;;;;5088351;27;45384;-72
2023/09/04 04:56:53;;;;;;;1.75;1.35;;;24.20;54.30;;;;;;5088861;27;45363;-72
2023/09/04 04:59:20;;;;;;;1.30;1.13;;;24.20;54.30;;;;;;5089825;27;45448;-73
2023/09/04 05:01:46;;;;;;;1.55;1.45;;;24.30;54.30;;;;;;5088857;27;45386;-73
2023/09/04 05:04:13;;;;;;;1.85;1.50;;;24.30;54.50;;;;;;5089054;27;45271;-73
2023/09/04 05:06:40;;;;;;;1.65;1.55;;;24.20;54.40;;;;;;5089048;27;45319;-72
2023/09/04 05:09:08;;;;;;;1.33;1.23;;;24.20;54.30;;;;;;5089123;27;45418;-72
2023/09/04 05:11:35;;;;;;;1.75;1.65;;;24.20;54.40;;;;;;5088807;27;46391;-72
2023/09/04 05:14:02;;;;;;;1.45;1.35;;;24.10;54.40;;;;;;5088906;27;45315;-72
2023/09/04 05:16:29;;;;;;;1.65;1.55;;;24.20;54.40;;;;;;5088904;27;45362;-72
2023/09/04 05:18:57;;;;;;;1.85;1.42;;;24.20;54.50;;;;;;5089303;27;45542;-71
2023/09/04 05:21:24;;;;;;;1.50;1.40;;;24.10;54.40;;;;;;5088082;27;45407;-72
2023/09/04 05:23:52;;;;;;;1.60;1.50;;;24.10;54.40;;;;;;5087906;27;45239;-72
2023/09/04 05:26:20;;;;;;;1.40;1.30;;;24.10;54.40;;;;;;5088568;27;45309;-72
2023/09/04 05:28:47;;;;;;;1.40;1.30;;;24.10;54.40;;;;;;5088653;27;45392;-72
2023/09/04 05:31:14;;;;;;;1.58;1.48;;;24.10;54.40;;;;;;5088411;27;45631;-72
2023/09/04 05:33:40;;;;;;;1.50;1.40;;;24.10;54.40;;;;;;5088617;27;45454;-72
2023/09/04 05:36:09;;;;;;;1.92;1.50;;;24.10;54.40;;;;;;5088514;27;45317;-72
2023/09/04 05:38:35;;;;;;;1.58;1.48;;;24.10;54.50;;;;;;5088513;27;45304;-72
2023/09/04 05:41:03;;;;;;;1.70;1.60;;;24.10;54.40;;;;;;5088207;27;45391;-72
2023/09/04 05:43:31;;;;;;;1.38;1.27;;;24.00;54.40;;;;;;5088367;27;45477;-72
2023/09/04 05:45:58;;;;;;;1.63;1.50;;;24.10;54.50;;;;;;5088387;27;45340;-72
2023/09/04 05:48:25;;;;;;;1.58;1.48;;;24.00;54.40;;;;;;5088530;27;45288;-72
2023/09/04 05:50:52;;;;;;;1.80;1.70;;;24.10;54.50;;;;;;5088509;27;46145;-72
2023/09/04 05:53:19;;;;;;;2.33;1.60;;;24.00;54.40;;;;;;5088272;27;45288;-72
2023/09/04 05:55:53;;;;;;;2.38;1.52;;;24.00;54.40;;;;;;5088276;27;45422;-72
2023/09/04 05:58:19;;;;;;;2.05;1.63;;;24.00;54.40;;;;;;5087927;27;45549;-72
2023/09/04 06:00:51;;;;;;;1.58;1.48;;;24.00;54.40;;;;;;5088079;27;45301;-74
2023/09/04 06:03:18;;;;;;;1.38;1.25;;;24.00;54.40;;;;;;5088123;27;45361;-72
2023/09/04 06:05:46;;;;;;;2.03;1.83;;;24.00;54.60;;;;;;5087350;27;45343;-72
2023/09/04 06:08:12;;;;;;;1.60;1.50;;;24.00;54.40;;;;;;5088093;27;45371;-72
2023/09/04 06:10:39;;;;;;;1.60;1.50;;;24.00;54.40;;;;;;5087122;27;46560;-72
2023/09/04 06:13:06;;;;;;;2.10;1.55;;;24.00;54.40;;;;;;5088067;27;45245;-72
2023/09/04 06:15:33;;;;;;;1.75;1.65;;;24.00;54.40;;;;;;5088177;27;45324;-72
2023/09/04 06:18:01;;;;;;;1.40;1.30;;;24.00;54.40;;;;;;5088080;27;45325;-72
2023/09/04 06:20:28;;;;;;;2.03;1.80;;;24.00;54.40;;;;;;5087556;27;45342;-72
2023/09/04 06:22:54;;;;;;;1.73;1.55;;;24.00;54.40;;;;;;5087737;27;45387;-72
2023/09/04 06:25:21;;;;;;;1.65;1.55;;;24.00;54.40;;;;;;5088027;27;45308;-72
2023/09/04 06:27:48;;;;;;;1.60;1.50;;;24.00;54.40;;;;;;5087830;27;45301;-72
2023/09/04 06:30:15;;;;;;;1.90;1.70;;;24.00;54.40;;;;;;5087553;27;46406;-73
2023/09/04 06:32:42;;;;;;;1.92;1.77;;;24.00;54.90;;;;;;5087674;27;45333;-72
2023/09/04 06:35:10;;;;;;;2.03;1.75;;;24.00;54.40;;;;;;5087980;27;45350;-72
2023/09/04 06:37:37;;;;;;;1.45;1.35;;;24.00;54.30;;;;;;5087745;27;45308;-72
2023/09/04 06:40:04;;;;;;;2.42;1.55;;;24.00;54.40;;;;;;5087302;27;47306;-72
2023/09/04 06:42:31;;;;;;;2.33;1.92;;;24.10;54.40;;;;;;5087412;27;45307;-72
2023/09/04 06:44:58;;;;;;;2.63;1.58;;;24.10;54.40;;;;;;5087575;27;45367;-72
2023/09/04 06:47:25;;;;;;;2.08;1.80;;;24.10;54.30;;;;;;5087534;27;45498;-72
2023/09/04 06:49:52;;;;;;;1.80;1.60;;;24.10;54.40;;;;;;5087277;27;46492;-72
2023/09/04 06:52:20;;;;;;;1.63;1.52;;;24.10;54.30;;;;;;5087400;27;45261;-72
2023/09/04 06:54:47;;;;;;;1.30;1.20;;;24.10;54.40;;;;;;5086862;27;45450;-72
2023/09/04 06:57:13;;;;;;;2.00;1.80;;;24.10;54.30;;;;;;5087301;27;45256;-72
2023/09/04 06:59:40;;;;;;;1.85;1.70;;;24.10;54.30;;;;;;5087061;27;46453;-72
2023/09/04 07:02:07;;;;;;;1.75;1.65;;;24.10;54.30;;;;;;5087398;27;45306;-72
2023/09/04 07:04:34;;;;;;;1.58;1.48;;;24.10;54.30;;;;;;5087414;27;45383;-72
2023/09/04 07:07:01;;;;;;;1.55;1.45;;;24.10;54.30;;;;;;5087308;27;45267;-72
2023/09/04 07:09:29;;;;;;;1.65;1.55;;;24.10;54.20;;;;;;5086856;27;46434;-72
2023/09/04 07:11:56;;;;;;;2.35;1.50;;;24.10;54.30;;;;;;5087312;27;45269;-72
2023/09/04 07:14:23;;;;;;;1.88;1.73;;;24.10;54.30;;;;;;5087554;27;45566;-72
2023/09/04 07:16:49;;;;;;;1.60;1.50;;;24.20;54.30;;;;;;5087302;27;45295;-72
2023/09/04 07:19:16;;;;;;;2.10;1.83;;;24.20;54.90;;;;;;5086934;27;46683;-72
2023/09/04 07:21:43;;;;;;;1.67;1.58;;;24.20;54.20;;;;;;5086763;27;45407;-72
2023/09/04 07:24:10;;;;;;;1.83;1.73;;;24.20;54.30;;;;;;5086955;27;45382;-72
2023/09/04 07:26:38;;;;;;;1.73;1.63;;;24.20;54.30;;;;;;5087370;27;45314;-72
2023/09/04 07:29:05;;;;;;;1.73;1.60;;;24.20;54.20;;;;;;5086652;27;45466;-71
2023/09/04 07:31:32;;;;;;;1.75;1.65;;;24.20;54.80;;;;;;5086779;27;45320;-71
2023/09/04 07:33:59;;;;;;;2.00;1.80;;;24.20;54.30;;;;;;5086961;27;45304;-71
2023/09/04 07:36:25;;;;;;;2.83;1.58;;;24.20;54.30;;;;;;5087085;27;45486;-71
2023/09/04 07:38:52;;;;;;;1.80;1.63;;;24.20;54.30;;;;;;5085693;27;45270;-71
2023/09/04 07:41:19;;;;;;;2.05;1.85;;;24.30;54.30;;;;;;5086321;27;45307;-71
2023/09/04 07:43:49;;;;;;;1.70;1.60;;;24.20;54.20;;;;;;5086858;27;45367;-72
2023/09/04 07:46:15;;;;;;;1.85;1.70;;;24.20;54.20;;;;;;5086822;27;45371;-71
2023/09/04 07:48:42;;;;;;;1.75;1.65;;;24.20;54.20;;;;;;5086236;27;45257;-71
2023/09/04 07:51:09;;;;;;;1.55;1.45;;;24.20;54.20;;;;;;5086499;27;45321;-72
2023/09/04 07:53:36;;;;;;;1.75;1.65;;;24.30;54.20;;;;;;5086529;27;45223;-72
2023/09/04 07:56:03;;;;;;;3.22;2.00;;;24.30;54.20;;;;;;5086739;27;45282;-72
2023/09/04 07:58:30;;;;;;;1.60;1.50;;;24.30;54.20;;;;;;5086420;27;45317;-72
2023/09/04 08:00:58;;;;;;;1.83;1.55;;;24.30;54.20;;;;;;5086260;27;45316;-71
2023/09/04 08:03:25;;;;;;;1.75;1.65;;;24.30;54.20;;;;;;5086355;27;45284;-72
2023/09/04 08:05:52;;;;;;;1.63;1.52;;;24.30;54.20;;;;;;5086472;27;45315;-72
2023/09/04 08:08:19;;;;;;;2.60;1.80;;;24.40;54.20;;;;;;5085914;27;45528;-72
2023/09/04 08:10:49;;;;;;;2.90;1.80;;;24.40;54.10;;;;;;5086580;27;45344;-72
2023/09/04 08:13:17;;;;;;;1.55;1.45;;;24.40;54.10;;;;;;5086604;27;45297;-72
2023/09/04 08:15:44;;;;;;;1.80;1.70;;;24.40;54.10;;;;;;5086804;27;45316;-72
2023/09/04 08:18:13;;;;;;;1.65;1.48;;;24.40;54.00;;;;;;5086134;27;45448;-72
2023/09/04 08:20:39;;;;;;;1.80;1.70;;;24.50;54.10;;;;;;5086578;27;45319;-72
2023/09/04 08:23:07;;;;;;;1.75;1.65;;;24.50;54.00;;;;;;5085665;27;45268;-72
2023/09/04 08:25:34;;;;;;;2.13;1.90;;;24.50;53.90;;;;;;5085630;27;45360;-71
2023/09/04 08:28:01;;;;;;;1.77;1.67;;;24.50;53.90;;;;;;5086470;27;46906;-72
2023/09/04 08:30:28;;;;;;;1.98;1.60;;;24.50;53.80;;;;;;5089934;27;45277;-72
2023/09/04 08:32:55;;;;;;;1.77;1.67;;;24.50;53.90;;;;;;5089889;27;45337;-72
2023/09/04 08:35:24;;;;;;;1.77;1.67;;;24.60;53.90;;;;;;5090264;27;45317;-72
2023/09/04 08:37:51;;;;;;;1.67;1.58;;;24.60;53.80;;;;;;5089412;27;45470;-72
2023/09/04 08:40:18;;;;;;;1.60;1.50;;;24.60;53.80;;;;;;5089319;27;45372;-71
2023/09/04 08:42:45;;;;;;;2.05;1.95;;;24.60;53.90;;;;;;5088973;27;45505;-71
2023/09/04 08:45:12;;;;;;;1.75;1.65;;;24.60;53.90;;;;;;5089512;27;45508;-72
2023/09/04 08:47:40;;;;;;;1.83;1.50;;;24.60;53.80;;;;;;5089093;27;46244;-72
2023/09/04 08:50:07;;;;;;;1.50;1.40;;;24.60;53.90;;;;;;5089150;27;45419;-72
2023/09/04 08:52:37;;;;;;;1.92;1.73;;;24.60;53.80;;;;;;5089630;27;45259;-72
2023/09/04 08:55:04;;;;;;;1.85;1.75;;;24.70;53.90;;;;;;5089456;27;45424;-71
2023/09/04 08:57:31;;;;;;;2.03;1.73;;;24.70;53.80;;;;;;5088859;27;45375;-72
2023/09/04 08:59:58;;;;;;;1.40;1.30;;;24.70;53.60;;;;;;5089008;27;45398;-72
2023/09/04 09:02:24;;;;;;;2.00;1.60;;;24.70;53.80;;;;;;5089546;27;45324;-72
2023/09/04 09:04:51;;;;;;;1.70;1.60;;;24.80;53.60;;;;;;5089315;27;45443;-72
2023/09/04 09:07:18;;;;;;;1.60;1.50;;;24.80;53.70;;;;;;5089010;27;45511;-72
2023/09/04 09:09:48;;;;;;;1.55;1.45;;;24.80;53.70;;;;;;5088119;27;45316;-72
2023/09/04 09:12:15;;;;;;;1.73;1.63;;;24.90;53.60;;;;;;5088563;27;45311;-72
2023/09/04 09:14:42;;;;;;;2.10;1.90;;;24.90;53.70;;;;;;5089286;27;45180;-71
2023/09/04 09:17:10;;;;;;;1.73;1.63;;;24.90;53.70;;;;;;5088602;27;46392;-72
2023/09/04 09:19:37;;;;;;;1.50;1.40;;;24.90;53.70;;;;;;5088545;27;45395;-72
2023/09/04 09:22:12;;;;;;;1.50;1.40;;;25.00;53.80;;;;;;5088747;27;45308;-72
2023/09/04 09:24:53;;;;;;;1.50;1.40;;;25.00;53.70;;;;;;5088766;27;45420;-72
2023/09/04 09:27:20;;;;;;;1.63;1.52;;;25.00;53.70;;;;;;5088295;27;45469;-72
2023/09/04 09:29:47;;;;;;;1.67;1.58;;;25.00;53.70;;;;;;5088557;27;45449;-72
2023/09/04 09:32:14;;;;;;;1.60;1.50;;;25.00;53.60;;;;;;5088715;27;45248;-72
2023/09/04 09:34:41;;;;;;;1.77;1.67;;;25.10;53.80;;;;;;5088738;27;45487;-72
2023/09/04 09:37:08;;;;;;;1.67;1.58;;;25.10;53.70;;;;;;5088156;27;45267;-72
2023/09/04 09:39:35;;;;;;;1.98;1.88;;;25.10;53.70;;;;;;5088212;27;45419;-72
2023/09/04 09:42:04;;;;;;;1.80;1.70;;;25.20;53.70;;;;;;5088376;27;45324;-73
2023/09/04 09:44:31;;;;;;;1.58;1.48;;;25.20;53.80;;;;;;5087710;27;45304;-73
2023/09/04 09:46:58;;;;;;;1.45;1.35;;;25.20;53.70;;;;;;5087994;27;47362;-72
2023/09/04 09:49:25;;;;;;;1.83;1.60;;;25.30;53.70;;;;;;5088089;27;45344;-72
2023/09/04 09:51:53;;;;;;;1.50;1.40;;;25.30;53.80;;;;;;5088345;27;45311;-72
2023/09/04 09:54:34;;;;;;;2.88;1.92;;;25.30;53.80;;;;;;5088535;27;45314;-73
2023/09/04 09:57:02;;;;;;;3.03;1.80;;;25.40;53.90;;;;;;5087698;27;46480;-72
2023/09/04 09:59:29;;;;;;;2.40;1.83;;;25.40;53.90;;;;;;5088868;27;45321;-72
2023/09/04 10:01:57;;;;;;;2.85;1.95;;;25.40;53.90;;;;;;5088475;27;45277;-72
2023/09/04 10:04:25;;;;;;;2.35;1.90;;;25.50;54.00;;;;;;5088538;27;45433;-71
2023/09/04 10:06:53;;;;;;;2.42;1.73;;;25.50;54.00;;;;;;5087077;27;47228;-72
2023/09/04 10:09:22;;;;;;;1.73;1.63;;;25.50;53.90;;;;;;5087514;27;45403;-72
2023/09/04 10:11:51;;;;;;;1.85;1.58;;;25.50;53.90;;;;;;5087933;27;45357;-72
2023/09/04 10:14:21;;;;;;;1.88;1.77;;;25.60;53.90;;;;;;5088103;27;45549;-72
2023/09/04 10:16:51;;;;;;;3.63;2.00;;;25.60;53.70;;;;;;5087638;27;46352;-72
2023/09/04 10:19:18;;;;;;;2.83;1.85;;;25.60;53.70;;;;;;5087916;27;45395;-72
2023/09/04 10:21:52;;;;;;;1.50;1.40;;;25.70;53.70;;;;;;5087781;27;45330;-72
2023/09/04 10:24:19;;;;;;;2.22;1.70;;;25.70;53.60;;;;;;5087739;27;45443;-72
2023/09/04 10:26:50;;;;;;;1.92;1.83;;;25.80;53.70;;;;;;5087598;27;45379;-72
2023/09/04 10:29:19;;;;;;;2.67;1.60;;;25.80;53.60;;;;;;5087550;27;45324;-72
2023/09/04 10:31:47;;;;;;;2.00;1.90;;;25.80;53.60;;;;;;5087607;27;45265;-72
2023/09/04 10:34:14;;;;;;;3.00;1.60;;;25.90;53.60;;;;;;5085269;27;45303;-72
2023/09/04 10:36:41;;;;;;;2.33;1.85;;;25.90;53.50;;;;;;5087384;27;45349;-72
2023/09/04 10:39:08;;;;;;;1.92;1.75;;;26.00;53.50;;;;;;5087564;27;45370;-72
2023/09/04 10:41:35;;;;;;;1.75;1.65;;;26.00;53.50;;;;;;5087303;27;45323;-72
2023/09/04 10:44:01;;;;;;;2.05;1.85;;;26.10;53.40;;;;;;5087819;27;45534;-72
2023/09/04 10:46:30;;;;;;;2.28;1.60;;;26.10;53.20;;;;;;5087193;27;45637;-72
2023/09/04 10:48:56;;;;;;;2.03;1.80;;;26.20;53.20;;;;;;5087288;27;45367;-72
2023/09/04 10:51:31;;;;;;;1.80;1.70;;;26.20;53.20;;;;;;5087167;27;45399;-72
2023/09/04 10:53:59;;;;;;;2.30;1.80;;;26.30;53.20;;;;;;5087922;27;45416;-72
2023/09/04 10:56:25;;;;;;;1.85;1.75;;;26.40;53.10;;;;;;5087303;27;47295;-71
2023/09/04 10:58:59;;;;;;;2.15;1.67;;;26.40;53.00;;;;;;5086942;27;45330;-72
2023/09/04 11:01:36;;;;;;;1.85;1.60;;;26.50;53.00;;;;;;5086494;27;45295;-72
2023/09/04 11:04:04;;;;;;;2.03;1.83;;;26.50;52.80;;;;;;5087418;27;45324;-71
2023/09/04 11:06:34;;;;;;;2.33;1.85;;;26.60;52.80;;;;;;5086805;27;45780;-72
2023/09/04 11:09:01;;;;;;;1.98;1.77;;;26.70;52.80;;;;;;5087267;27;45255;-73
2023/09/04 11:11:28;;;;;;;1.85;1.75;;;26.80;52.60;;;;;;5087148;27;45556;-73
2023/09/04 11:13:59;;;;;;;1.60;1.50;;;26.80;52.40;;;;;;5087746;27;45284;-73
2023/09/04 11:16:26;;;;;;;2.00;1.80;;;26.90;52.30;;;;;;5087946;27;46799;-72
2023/09/04 11:19:16;;;;;;;1.70;1.60;;;27.00;52.20;;;;;;5087903;27;45117;-72
2023/09/04 11:21:44;;;;;;;1.92;1.70;;;27.10;52.10;;;;;;5087366;27;45404;-72
2023/09/04 11:24:10;;;;;;;2.83;1.48;;;27.20;51.90;;;;;;5086987;27;45629;-72
2023/09/04 11:26:38;;;;;;;2.00;1.52;;;27.30;51.90;;;;;;5086538;27;45257;-72
2023/09/04 11:29:05;;;;;;;1.70;1.60;;;27.30;51.70;;;;;;5087085;27;45594;-72
2023/09/04 11:31:34;;;;;;;2.03;1.80;;;27.40;51.60;;;;;;5087026;27;45410;-72
2023/09/04 11:34:01;;;;;;;1.70;1.60;;;27.50;51.60;;;;;;5087266;27;45315;-72
2023/09/04 11:36:29;;;;;;;2.08;1.88;;;27.50;51.40;;;;;;5086863;27;46843;-72
2023/09/04 11:39:04;;;;;;;1.80;1.60;;;27.60;51.40;;;;;;5086523;27;45285;-72
2023/09/04 11:41:31;;;;;;;1.65;1.55;;;27.60;51.20;;;;;;5086356;27;45230;-72
2023/09/04 11:43:58;;;;;;;2.20;1.63;;;27.70;51.20;;;;;;5086648;27;45349;-72
2023/09/04 11:46:25;;;;;;;1.80;1.50;;;27.80;51.00;;;;;;5086305;27;46401;-72
2023/09/04 11:48:51;;;;;;;1.50;1.40;;;27.80;50.90;;;;;;5086257;27;45328;-72
2023/09/04 11:51:18;;;;;;;1.63;1.52;;;27.90;50.90;;;;;;5086316;27;45326;-72
2023/09/04 11:53:48;;;;;;;1.75;1.65;;;28.00;50.90;;;;;;5083762;27;45439;-72
2023/09/04 11:56:15;;;;;;;1.77;1.65;;;28.00;50.70;;;;;;5086426;27;46596;-71
2023/09/04 11:58:41;;;;;;;1.63;1.50;;;28.10;51.00;;;;;;5086130;27;45375;-71
2023/09/04 12:01:08;;;;;;;1.63;1.52;;;28.10;50.50;;;;;;5086578;27;45376;-72
2023/09/04 12:03:35;;;;;;;1.90;1.63;;;28.20;50.30;;;;;;5085692;27;45488;-72
2023/09/04 12:06:02;;;;;;;2.00;1.80;;;28.20;50.50;;;;;;5086455;28;45403;-72
2023/09/04 12:08:29;;;;;;;1.65;1.55;;;28.30;50.40;;;;;;5091026;27;45343;-72
2023/09/04 12:10:57;;;;;;;1.80;1.70;;;28.40;50.40;;;;;;5101491;27;45468;-72
2023/09/04 12:13:24;;;;;;;5.35;1.85;;;28.40;50.40;;;;;;5090280;27;45493;-72
2023/09/04 12:15:51;;;;;;;1.88;1.73;;;28.50;50.20;;;;;;5090270;27;46389;-72
2023/09/04 12:18:18;;;;;;;2.50;1.90;;;28.60;50.10;;;;;;5091310;27;45368;-72
2023/09/04 12:20:45;;;;;;;1.50;1.23;;;28.60;49.90;;;;;;5089733;27;45350;-72
2023/09/04 12:23:12;;;;;;;1.50;1.40;;;28.70;49.90;;;;;;5084852;27;45367;-72
2023/09/04 12:25:39;;;;;;;1.45;1.35;;;28.80;49.70;;;;;;5089086;27;45260;-72
2023/09/04 12:28:09;;;;;;;1.77;1.67;;;28.90;49.60;;;;;;5086939;27;45454;-72
2023/09/04 12:30:36;;;;;;;1.80;1.70;;;28.90;49.50;;;;;;5090043;27;45335;-72
2023/09/04 12:33:04;;;;;;;1.60;1.50;;;29.00;49.40;;;;;;5089537;27;45392;-72
2023/09/04 12:35:31;;;;;;;1.63;1.40;;;29.00;49.20;;;;;;5089113;27;45364;-72
2023/09/04 12:37:57;;;;;;;1.60;1.50;;;29.10;49.20;;;;;;5088748;27;45500;-73
2023/09/04 12:40:24;;;;;;;1.60;1.50;;;29.10;49.00;;;;;;5086951;28;45391;-72
2023/09/04 12:42:51;;;;;;;1.98;1.80;;;29.20;49.00;;;;;;5087504;27;45419;-73
2023/09/04 12:45:19;;;;;;;2.90;1.70;;;29.30;48.90;;;;;;5087894;27;45464;-71
2023/09/04 12:47:46;;;;;;;1.63;1.52;;;29.30;48.60;;;;;;5087973;27;45415;-72
2023/09/04 12:50:13;;;;;;;2.85;1.60;;;29.40;48.90;;;;;;5090076;27;45390;-72
2023/09/04 12:52:43;;;;;;;1.80;1.70;;;29.40;48.50;;;;;;5090039;27;45293;-72